Time;durP1;ratioP1;P1;durP2;ratioP2;P2;SDS_P1;SDS_P2;PMS_P1;PMS_P2;Temp;Humidity;BMP_temperature;BMP_pressure;BME280_temperature;BME280_humidity;BME280_pressure;Samples;Min_cycle;Max_cycle;Signal;HPM_P1;HPM_P2
2022/11/20 00:01:13;;;;;;;3.95;3.58;;;;;;;20.37;47.92;96324.88;10431373;28;20050;-57
2022/11/20 00:06:32;;;;;;;3.70;3.40;;;;;;;20.33;48.06;96324.78;10417286;28;20492;-57
2022/11/20 00:11:52;;;;;;;3.60;3.30;;;;;;;20.33;48.04;96330.19;10371086;28;20073;-58
2022/11/20 00:17:11;;;;;;;4.03;3.58;;;;;;;20.30;47.83;96328.94;10375539;28;20109;-57
2022/11/20 00:22:31;;;;;;;3.50;3.20;;;;;;;20.29;47.97;96321.19;10376392;28;20081;-57
2022/11/20 00:27:50;;;;;;;3.72;3.38;;;;;;;20.25;47.80;96326.47;10388673;28;20393;-57
2022/11/20 00:33:10;;;;;;;4.05;3.65;;;;;;;20.24;47.86;96329.50;10387981;28;20058;-57
2022/11/20 00:38:30;;;;;;;3.60;3.30;;;;;;;20.21;47.78;96322.88;10375641;28;20053;-57
2022/11/20 00:43:52;;;;;;;3.72;3.42;;;;;;;20.20;47.93;96326.69;10398902;28;20045;-57
2022/11/20 00:49:11;;;;;;;3.80;3.50;;;;;;;20.18;47.85;96326.25;10416465;28;20049;-57
2022/11/20 00:54:31;;;;;;;3.25;2.95;;;;;;;20.15;47.90;96319.59;10415918;28;20053;-57
2022/11/20 00:59:50;;;;;;;3.83;3.53;;;;;;;20.14;47.84;96317.22;10415197;28;20479;-57
2022/11/20 01:05:10;;;;;;;3.30;2.95;;;;;;;20.12;47.83;96322.19;10408085;28;20100;-57
2022/11/20 01:10:29;;;;;;;3.50;3.20;;;;;;;20.10;47.78;96319.03;10374090;28;20058;-58
2022/11/20 01:15:48;;;;;;;3.13;2.92;;;;;;;20.08;47.98;96321.31;10374438;28;20050;-58
2022/11/20 01:21:14;;;;;;;3.38;3.08;;;;;;;20.06;47.86;96318.94;10374221;28;20058;-58
2022/11/20 01:26:35;;;;;;;3.90;3.30;;;;;;;20.05;47.92;96321.97;10387597;28;20046;-56
2022/11/20 01:31:54;;;;;;;3.40;3.10;;;;;;;20.03;47.88;96324.22;10386837;28;20080;-57
2022/11/20 01:37:14;;;;;;;4.43;2.90;;;;;;;20.02;47.91;96322.66;10373611;28;20045;-57
2022/11/20 01:48:11;;;;;;;3.30;3.00;;;;;;;19.97;47.98;96314.75;10414353;28;20053;-58
2022/11/20 01:53:34;;;;;;;3.30;3.00;;;;;;;19.95;47.92;96312.38;10413783;28;20354;-57
2022/11/20 01:58:56;;;;;;;2.85;2.60;;;;;;;19.94;47.84;96313.53;10413532;28;20096;-57
2022/11/20 02:04:16;;;;;;;3.17;2.88;;;;;;;19.92;47.84;96313.09;10383303;28;20046;-57
2022/11/20 02:09:35;;;;;;;2.92;2.55;;;;;;;19.90;47.80;96310.72;10374183;28;20448;-57
2022/11/20 02:14:55;;;;;;;3.08;2.88;;;;;;;19.88;47.81;96301.38;10381700;28;20391;-57
2022/11/20 02:20:14;;;;;;;2.88;2.67;;;;;;;19.87;47.81;96303.25;10365807;28;20050;-57
2022/11/20 02:25:35;;;;;;;3.20;2.90;;;;;;;19.84;47.88;96286.97;10381062;28;20081;-57
2022/11/20 02:30:54;;;;;;;2.92;2.72;;;;;;;19.83;47.80;96288.84;10365272;28;20054;-58
2022/11/20 02:36:15;;;;;;;2.80;2.60;;;;;;;19.82;47.77;96276.47;10379864;28;20045;-57
2022/11/20 02:41:36;;;;;;;3.08;2.88;;;;;;;19.79;47.77;96276.34;10385329;28;20053;-57
2022/11/20 02:46:59;;;;;;;3.00;2.80;;;;;;;19.78;47.90;96286.38;10420441;28;20058;-58
2022/11/20 02:52:19;;;;;;;2.85;2.55;;;;;;;19.76;47.69;96288.63;10421004;28;20111;-58
2022/11/20 02:57:38;;;;;;;3.13;2.83;;;;;;;19.74;47.74;96278.16;10412768;28;20058;-57
2022/11/20 03:02:57;;;;;;;2.70;2.50;;;;;;;19.73;47.81;96278.50;10379533;28;20053;-57
2022/11/20 03:08:17;;;;;;;2.70;2.50;;;;;;;19.70;47.75;96274.53;10379347;28;20050;-57
2022/11/20 03:13:37;;;;;;;2.70;2.50;;;;;;;19.69;47.69;96274.88;10378789;28;20045;-57
2022/11/20 03:18:56;;;;;;;2.72;2.53;;;;;;;19.67;47.83;96258.19;10391964;28;20046;-58
2022/11/20 03:24:16;;;;;;;2.85;2.60;;;;;;;19.65;47.80;96261.22;10377719;28;20046;-55
2022/11/20 03:29:36;;;;;;;2.47;2.28;;;;;;;19.64;47.75;96256.97;10378455;28;20050;-57
2022/11/20 03:34:55;;;;;;;2.92;2.67;;;;;;;19.62;47.80;96255.72;10391343;28;20060;-57
2022/11/20 03:40:14;;;;;;;2.88;2.45;;;;;;;19.61;47.81;96270.38;10377550;28;20057;-57
2022/11/20 03:45:34;;;;;;;2.58;2.38;;;;;;;19.59;47.76;96276.09;10415402;28;20049;-57
2022/11/20 03:51:06;;;;;;;2.95;2.65;;;;;;;19.57;47.70;96278.34;10418761;28;20127;-58
2022/11/20 03:56:28;;;;;;;3.17;2.88;;;;;;;19.56;47.72;96282.16;10389499;28;20058;-58
2022/11/20 04:01:48;;;;;;;3.95;2.72;;;;;;;19.54;47.86;96287.09;10377260;28;20066;-58
2022/11/20 04:07:07;;;;;;;3.00;2.58;;;;;;;19.53;47.63;96291.72;10377074;28;20050;-58
2022/11/20 04:12:27;;;;;;;3.00;2.80;;;;;;;19.51;47.76;96293.19;10376277;28;20065;-57
2022/11/20 04:17:46;;;;;;;3.20;2.90;;;;;;;19.48;47.65;96294.66;10376751;28;20177;-57
2022/11/20 04:23:05;;;;;;;2.88;2.67;;;;;;;19.47;47.73;96292.31;10375898;28;20540;-57
2022/11/20 04:28:25;;;;;;;2.60;2.40;;;;;;;19.45;47.71;96295.34;10376027;28;20065;-57
2022/11/20 04:33:45;;;;;;;2.80;2.60;;;;;;;19.44;47.78;96291.03;10375274;28;20489;-57
2022/11/20 04:39:06;;;;;;;2.88;2.60;;;;;;;19.42;47.74;96282.47;10375792;28;20061;-55
2022/11/20 04:44:26;;;;;;;2.90;2.70;;;;;;;19.41;47.85;96278.22;10403084;28;20053;-57
2022/11/20 04:49:45;;;;;;;2.90;2.70;;;;;;;19.39;47.70;96266.97;10412110;28;20410;-57
2022/11/20 04:55:06;;;;;;;3.25;2.85;;;;;;;19.36;47.70;96263.00;10386478;28;20088;-57
2022/11/20 05:00:25;;;;;;;2.70;2.50;;;;;;;19.35;47.79;96253.34;10360446;28;20097;-58
2022/11/20 05:05:45;;;;;;;2.97;2.78;;;;;;;19.34;47.97;96254.44;10387840;28;20547;-58
2022/11/20 05:11:16;;;;;;;3.30;3.00;;;;;;;19.33;47.63;96249.41;10374831;28;20054;-56
2022/11/20 05:16:36;;;;;;;2.78;2.58;;;;;;;19.31;47.91;96246.25;10387385;28;20050;-57
2022/11/20 05:21:56;;;;;;;3.00;2.70;;;;;;;19.29;47.93;96240.41;10373767;28;20544;-58
2022/11/20 05:27:15;;;;;;;3.00;2.70;;;;;;;19.29;47.86;96245.78;10373873;28;20112;-57
2022/11/20 05:32:35;;;;;;;3.05;2.75;;;;;;;19.27;47.82;96248.03;10373413;28;20058;-55
2022/11/20 05:37:54;;;;;;;3.38;2.60;;;;;;;19.24;47.92;96227.88;10386617;28;20054;-57
2022/11/20 05:43:14;;;;;;;3.45;3.15;;;;;;;19.23;47.78;96242.53;10405098;28;20436;-58
2022/11/20 05:48:34;;;;;;;3.08;2.78;;;;;;;19.23;47.71;96241.72;10393514;28;20042;-56
2022/11/20 05:53:56;;;;;;;2.90;2.70;;;;;;;19.20;47.87;96247.81;10371312;28;20046;-57
2022/11/20 05:59:15;;;;;;;2.97;2.70;;;;;;;19.19;47.94;96259.72;10372466;28;20058;-57
2022/11/20 06:04:35;;;;;;;3.35;3.05;;;;;;;19.17;47.74;96270.88;10373083;28;20053;-57
2022/11/20 06:09:54;;;;;;;3.10;2.83;;;;;;;19.15;47.79;96265.78;10372511;28;20520;-58
2022/11/20 06:15:13;;;;;;;3.50;3.20;;;;;;;19.14;47.83;96261.50;10372441;28;20505;-57
2022/11/20 06:20:33;;;;;;;3.10;2.80;;;;;;;19.10;47.73;96263.28;10372593;28;20084;-56
2022/11/20 06:25:52;;;;;;;3.30;3.00;;;;;;;19.10;47.69;96252.50;10372574;28;20050;-57
2022/11/20 06:31:13;;;;;;;3.05;2.78;;;;;;;19.08;47.69;96249.34;10372743;28;20064;-56
2022/11/20 06:36:33;;;;;;;2.92;2.72;;;;;;;19.07;47.70;96245.09;10372381;28;20045;-57
2022/11/20 06:41:52;;;;;;;3.22;2.92;;;;;;;19.06;47.74;96246.19;10378715;28;20057;-57
2022/11/20 06:47:12;;;;;;;2.97;2.75;;;;;;;19.04;47.84;96251.13;10331861;28;20046;-57
2022/11/20 06:52:32;;;;;;;3.47;2.83;;;;;;;19.04;47.91;96253.84;10331787;28;20125;-57
2022/11/20 06:57:52;;;;;;;3.97;3.45;;;;;;;19.03;47.90;96246.06;10333966;28;20050;-57
2022/11/20 07:03:12;;;;;;;3.30;3.00;;;;;;;19.03;47.84;96241.44;10338985;28;20054;-57
2022/11/20 07:08:33;;;;;;;3.22;2.97;;;;;;;19.03;47.89;96209.06;10338795;28;20069;-57
2022/11/20 07:13:52;;;;;;;4.22;3.25;;;;;;;19.03;47.84;96244.16;10338318;28;20053;-57
2022/11/20 07:19:11;;;;;;;3.50;3.20;;;;;;;19.04;47.88;96236.84;10351351;28;20097;-57
2022/11/20 07:24:31;;;;;;;4.35;3.05;;;;;;;19.03;47.99;96230.66;10350990;28;20046;-58
2022/11/20 07:29:50;;;;;;;3.65;3.22;;;;;;;19.04;47.96;96237.63;10337814;28;20061;-56
2022/11/20 07:35:10;;;;;;;3.28;2.97;;;;;;;19.05;48.07;96230.31;10345238;28;20046;-57
2022/11/20 07:40:30;;;;;;;3.35;3.05;;;;;;;19.06;48.11;96238.09;10377768;28;20080;-58
2022/11/20 07:45:50;;;;;;;3.20;2.90;;;;;;;19.06;48.17;96232.69;10417656;28;20064;-57
2022/11/20 07:51:09;;;;;;;3.33;3.03;;;;;;;19.09;48.16;96234.75;10418476;28;20060;-57
2022/11/20 07:56:29;;;;;;;3.35;3.05;;;;;;;19.11;48.16;96247.88;10417586;28;20421;-57
2022/11/20 08:01:48;;;;;;;3.38;3.08;;;;;;;19.11;48.07;96254.09;10418335;28;20123;-57
2022/11/20 08:07:08;;;;;;;3.72;3.38;;;;;;;19.14;48.10;96249.91;10416862;28;20496;-57
2022/11/20 08:18:08;;;;;;;3.95;3.35;;;;;;;19.19;48.01;96248.91;10417686;28;20049;-54
2022/11/20 08:23:27;;;;;;;3.97;3.15;;;;;;;19.20;47.90;96253.97;10430590;28;20052;-57
2022/11/20 08:28:47;;;;;;;3.55;3.25;;;;;;;19.22;47.85;96243.63;10417242;28;20057;-57
2022/11/20 08:34:06;;;;;;;3.97;3.58;;;;;;;19.25;47.85;96244.88;10430156;28;20049;-57
2022/11/20 08:39:26;;;;;;;11.55;10.43;;;;;;;19.19;42.58;96225.41;10334789;28;20062;-57
2022/11/20 08:44:46;;;;;;;4.30;3.92;;;;;;;19.20;46.08;96212.69;10409722;28;20037;-57
2022/11/20 08:50:11;;;;;;;5.25;4.75;;;;;;;19.24;46.48;96203.56;10414771;28;20057;-57
2022/11/20 08:55:31;;;;;;;5.05;4.65;;;;;;;19.28;46.41;96211.81;10415623;28;20520;-57
2022/11/20 09:00:51;;;;;;;4.90;4.40;;;;;;;19.30;46.32;96206.84;10429305;28;20044;-58
2022/11/20 09:06:10;;;;;;;4.60;4.15;;;;;;;19.32;46.26;96199.97;10415336;28;20494;-58
2022/11/20 09:11:30;;;;;;;4.80;4.40;;;;;;;19.35;46.39;96191.22;10415196;28;20493;-57
2022/11/20 09:16:50;;;;;;;4.53;4.13;;;;;;;19.38;46.58;96202.47;10415046;28;20497;-58
2022/11/20 09:22:10;;;;;;;4.50;4.10;;;;;;;19.41;46.62;96207.22;10414030;28;20062;-57
2022/11/20 09:27:29;;;;;;;6.10;4.00;;;;;;;19.42;46.67;96217.66;10399568;28;20049;-57
2022/11/20 09:32:49;;;;;;;4.20;3.80;;;;;;;19.45;46.82;96208.09;10395799;28;20050;-57
2022/11/20 09:38:10;;;;;;;4.13;3.72;;;;;;;19.47;46.88;96205.84;10358855;28;20054;-57
2022/11/20 09:43:58;;;;;;;11.35;6.53;;;;;;;19.49;47.25;96209.78;10394327;28;20057;-57
2022/11/20 09:49:33;;;;;;;4.88;4.28;;;;;;;19.52;47.32;96202.91;10412822;28;20048;-59
2022/11/20 09:54:53;;;;;;;7.72;4.57;;;;;;;19.52;47.85;96182.09;10414162;28;20057;-57
2022/11/20 10:00:14;;;;;;;9.68;4.57;;;;;;;19.54;48.75;96179.84;10390876;28;20045;-57
2022/11/20 10:05:36;;;;;;;7.47;4.72;;;;;;;19.56;49.56;96174.91;10416687;28;20041;-57
2022/11/20 10:11:04;;;;;;;7.25;4.15;;;;;;;19.60;49.95;96166.91;10408387;28;20061;-57
2022/11/20 10:16:47;;;;;;;9.90;4.28;;;;;;;19.63;50.96;96176.25;10410940;28;20417;-57
2022/11/20 10:22:16;;;;;;;5.80;4.15;;;;;;;19.64;50.50;96161.59;10331887;28;20548;-57
2022/11/20 10:28:08;;;;;;;6.05;5.30;;;;;;;19.68;50.60;96162.47;10332172;28;20050;-57
2022/11/20 10:33:32;;;;;;;7.75;5.40;;;;;;;19.68;50.50;96178.69;10328812;28;20051;-57
2022/11/20 10:39:00;;;;;;;5.80;4.90;;;;;;;19.71;50.47;96169.91;10338699;28;20399;-58
2022/11/20 10:50:08;;;;;;;7.07;5.30;;;;;;;19.75;50.63;96141.13;10393480;28;20049;-57
2022/11/20 10:56:01;;;;;;;5.88;4.90;;;;;;;19.75;50.51;96139.19;10405701;28;20049;-57
2022/11/20 11:01:26;;;;;;;6.38;5.47;;;;;;;19.78;50.37;96145.03;10391389;28;20119;-57
2022/11/20 11:06:47;;;;;;;5.80;5.00;;;;;;;19.78;50.22;96151.25;10420464;28;20060;-57
2022/11/20 11:12:09;;;;;;;5.63;4.93;;;;;;;19.81;50.21;96160.59;10390110;28;20492;-57
2022/11/20 11:17:33;;;;;;;8.70;5.30;;;;;;;19.81;49.93;96130.84;10379112;28;20046;-57
2022/11/20 11:22:55;;;;;;;5.80;5.20;;;;;;;19.83;49.71;96137.50;10379182;28;20057;-53
2022/11/20 11:28:21;;;;;;;6.22;4.93;;;;;;;19.84;49.67;96125.56;10378366;28;20059;-57
2022/11/20 11:33:41;;;;;;;4.97;4.47;;;;;;;19.87;49.58;96126.78;10378582;28;20057;-57
2022/11/20 11:39:01;;;;;;;5.93;5.18;;;;;;;19.89;49.45;96108.31;10378730;28;20058;-57
2022/11/20 11:50:09;;;;;;;6.65;4.90;;;;;;;19.92;49.18;96107.63;10366086;28;20064;-57
2022/11/20 11:55:56;;;;;;;5.95;5.03;;;;;;;19.93;49.17;96120.81;10377711;28;20058;-57
2022/11/20 12:01:24;;;;;;;5.20;4.70;;;;;;;19.95;49.23;96115.84;10377024;28;20062;-58
2022/11/20 12:06:47;;;;;;;6.32;4.97;;;;;;;19.98;48.69;96102.78;10377151;28;20050;-58
2022/11/20 12:12:20;;;;;;;6.10;4.97;;;;;;;20.00;48.63;96087.78;10424785;28;20052;-57
2022/11/20 12:17:40;;;;;;;5.60;4.93;;;;;;;20.01;48.83;96078.50;10417435;28;20061;-58
2022/11/20 12:23:09;;;;;;;6.28;4.97;;;;;;;20.03;48.76;96067.38;10417933;28;20412;-58
2022/11/20 12:28:41;;;;;;;6.22;5.10;;;;;;;20.04;48.72;96061.63;10402492;28;20057;-57
2022/11/20 12:34:12;;;;;;;5.25;4.75;;;;;;;20.07;48.80;96081.75;10416681;28;20501;-57
2022/11/20 12:39:36;;;;;;;5.50;4.35;;;;;;;20.07;48.90;96074.47;10401532;28;20057;-57
2022/11/20 12:45:14;;;;;;;5.82;4.90;;;;;;;20.08;48.59;96073.31;10429981;28;20092;-57
2022/11/20 12:50:43;;;;;;;5.45;4.88;;;;;;;20.10;48.59;96073.75;10414923;28;20061;-57
2022/11/20 12:56:41;;;;;;;5.60;5.05;;;;;;;20.11;48.54;96055.59;10415927;28;20065;-57
2022/11/20 13:02:29;;;;;;;5.85;4.93;;;;;;;20.13;48.64;96061.44;10388415;28;20137;-57
2022/11/20 13:07:51;;;;;;;5.47;4.55;;;;;;;20.14;48.68;96042.19;10373865;28;20046;-57
2022/11/20 13:13:35;;;;;;;5.18;4.45;;;;;;;20.16;48.51;96047.25;10319744;28;20057;-58
2022/11/20 13:18:54;;;;;;;5.35;4.75;;;;;;;20.17;48.54;96042.63;10334162;28;20154;-57
2022/11/20 13:24:22;;;;;;;5.00;4.50;;;;;;;20.20;48.42;96041.94;10333849;28;20105;-57
2022/11/20 13:29:47;;;;;;;5.50;4.47;;;;;;;20.21;48.52;96043.50;10333057;28;20524;-58
2022/11/20 13:35:08;;;;;;;4.72;4.28;;;;;;;20.21;48.71;96030.78;10318820;28;20122;-57
2022/11/20 13:40:28;;;;;;;4.47;4.07;;;;;;;20.23;48.59;96015.00;10346228;28;20042;-57
2022/11/20 13:46:03;;;;;;;6.03;4.20;;;;;;;20.24;48.61;96013.06;10333257;28;20058;-57
2022/11/20 13:51:31;;;;;;;4.60;4.20;;;;;;;20.25;48.69;96003.84;10318719;28;20054;-57
2022/11/20 13:57:19;;;;;;;5.95;4.22;;;;;;;20.26;48.48;96016.22;10339119;28;20061;-58
2022/11/20 14:02:38;;;;;;;4.90;4.40;;;;;;;20.28;48.51;96022.84;10372715;28;20050;-58
2022/11/20 14:07:58;;;;;;;4.82;4.28;;;;;;;20.29;48.53;96012.81;10367540;28;20057;-57
2022/11/20 14:13:19;;;;;;;4.18;3.78;;;;;;;20.29;48.43;96019.00;10427719;28;20053;-57
2022/11/20 14:18:39;;;;;;;4.72;4.22;;;;;;;20.31;48.49;96013.25;10427785;28;20054;-57
2022/11/20 14:24:06;;;;;;;4.03;3.58;;;;;;;20.31;48.32;96011.34;10427502;28;20045;-57
2022/11/20 14:29:45;;;;;;;4.63;4.10;;;;;;;20.33;48.30;96002.88;10427264;28;20061;-57
2022/11/20 14:35:13;;;;;;;4.40;4.00;;;;;;;20.33;48.35;96011.00;10412562;28;20061;-57
2022/11/20 14:40:37;;;;;;;4.35;3.95;;;;;;;20.34;48.27;95999.03;10426333;28;20054;-57
2022/11/20 14:46:05;;;;;;;4.18;3.78;;;;;;;20.35;48.24;95992.50;10426455;28;20564;-55
2022/11/20 14:51:34;;;;;;;4.20;3.80;;;;;;;20.35;48.20;96004.09;10427174;28;20057;-57
2022/11/20 14:57:01;;;;;;;4.30;3.90;;;;;;;20.36;48.22;96004.88;10388540;28;20054;-57
2022/11/20 15:02:22;;;;;;;4.05;3.72;;;;;;;20.37;48.31;96005.69;10398877;28;20049;-57
2022/11/20 15:07:47;;;;;;;3.88;3.47;;;;;;;20.39;48.20;96016.94;10370756;28;20050;-58
2022/11/20 15:13:16;;;;;;;4.38;3.97;;;;;;;20.38;47.96;96018.84;10345064;28;20058;-57
2022/11/20 15:18:43;;;;;;;3.90;3.60;;;;;;;20.39;48.05;96016.94;10353409;28;20058;-57
2022/11/20 15:24:02;;;;;;;4.40;4.00;;;;;;;20.40;48.05;96018.50;10351403;28;20038;-57
2022/11/20 15:29:23;;;;;;;3.90;3.60;;;;;;;20.40;47.95;96016.56;10336793;28;20101;-58
2022/11/20 15:34:42;;;;;;;3.88;3.58;;;;;;;20.41;47.92;96020.06;10337672;28;20050;-57
2022/11/20 15:40:03;;;;;;;4.10;3.63;;;;;;;20.42;47.95;96027.03;10336891;28;20105;-57
2022/11/20 15:45:23;;;;;;;5.63;3.75;;;;;;;20.42;47.90;96027.81;10350652;28;20039;-57
2022/11/20 15:50:53;;;;;;;13.55;12.13;;;;;;;20.22;38.85;96026.94;10354877;28;20057;-57
2022/11/20 15:56:13;;;;;;;5.00;4.60;;;;;;;20.24;44.64;96013.84;10376231;28;20568;-57
2022/11/20 16:01:33;;;;;;;6.53;5.80;;;;;;;20.31;45.41;96011.34;10361860;28;20165;-57
2022/11/20 16:06:53;;;;;;;6.30;5.70;;;;;;;20.34;45.29;96013.31;10377378;28;20050;-57
2022/11/20 16:15:44;;;;;;;5.82;5.22;;;;;;;20.38;45.27;96012.63;10412484;28;20053;-57
2022/11/20 16:17:52;;;;;;;5.70;5.10;;;;;;;20.39;45.46;96022.34;10431158;28;20050;-57
2022/11/20 16:23:12;;;;;;;6.25;5.28;;;;;;;20.39;45.58;96006.09;10424532;28;20092;-57
2022/11/20 16:28:32;;;;;;;5.40;4.90;;;;;;;20.41;45.58;96004.63;10429877;28;20049;-57
2022/11/20 16:33:54;;;;;;;5.57;4.95;;;;;;;20.41;45.79;96007.31;10416834;28;20061;-57
2022/11/20 16:39:14;;;;;;;5.57;5.07;;;;;;;20.42;45.83;96016.22;10416721;28;20054;-57
2022/11/20 16:44:34;;;;;;;5.32;4.82;;;;;;;20.43;45.99;96024.00;10415754;28;20516;-57
2022/11/20 16:49:54;;;;;;;5.28;4.78;;;;;;;20.45;45.92;96016.31;10334413;28;20490;-59
2022/11/20 16:55:13;;;;;;;5.55;4.97;;;;;;;20.46;45.85;96023.28;10334692;28;20058;-56
2022/11/20 17:00:38;;;;;;;5.07;4.57;;;;;;;20.47;46.04;96038.38;10333942;28;20516;-57
2022/11/20 17:05:58;;;;;;;5.28;4.43;;;;;;;20.48;46.08;96025.66;10334429;28;20105;-54
2022/11/20 17:11:18;;;;;;;4.78;4.30;;;;;;;20.49;46.14;96025.31;10394294;28;20061;-56
2022/11/20 17:16:38;;;;;;;5.35;4.45;;;;;;;20.50;46.15;96031.50;10400153;28;20412;-57
2022/11/20 17:21:58;;;;;;;4.53;4.13;;;;;;;20.49;46.37;96028.00;10415447;28;20061;-56
2022/11/20 17:27:17;;;;;;;4.40;4.00;;;;;;;20.50;46.56;96023.38;10415071;28;20053;-56
2022/11/20 17:32:36;;;;;;;5.07;4.57;;;;;;;20.52;46.26;96031.94;10428155;28;20048;-58
2022/11/20 17:37:56;;;;;;;5.07;4.57;;;;;;;20.50;46.24;96031.50;10415005;28;20417;-57
2022/11/20 17:43:16;;;;;;;6.57;4.95;;;;;;;20.50;44.67;96026.06;10402788;28;20042;-57
2022/11/20 17:48:37;;;;;;;5.10;4.60;;;;;;;20.48;44.10;96021.03;10373667;28;20453;-58
2022/11/20 17:53:59;;;;;;;6.13;4.65;;;;;;;20.49;45.12;96019.13;10373465;28;20049;-57
2022/11/20 17:59:20;;;;;;;7.55;4.95;;;;;;;20.49;44.94;96022.59;10372706;28;20065;-57
2022/11/20 18:04:40;;;;;;;7.50;5.07;;;;;;;20.50;45.28;96028.78;10372851;28;20402;-55
2022/11/20 18:09:59;;;;;;;5.65;4.70;;;;;;;20.50;45.32;96021.47;10402378;28;20096;-56
2022/11/20 18:15:18;;;;;;;7.18;4.75;;;;;;;20.52;45.19;96011.09;10427265;28;20440;-55
2022/11/20 18:20:37;;;;;;;5.65;4.85;;;;;;;20.52;45.40;96002.97;10383173;28;20494;-57
2022/11/20 18:26:00;;;;;;;5.95;4.68;;;;;;;20.54;45.55;95991.78;10385719;28;20042;-57
2022/11/20 18:31:20;;;;;;;4.65;4.22;;;;;;;20.54;45.71;95997.19;10372875;28;20054;-57
2022/11/20 18:36:41;;;;;;;4.78;4.35;;;;;;;20.55;45.96;95993.34;10372663;28;20053;-56
2022/11/20 18:47:39;;;;;;;5.05;3.85;;;;;;;20.54;46.11;95989.06;10372259;28;20080;-56
2022/11/20 18:52:58;;;;;;;5.63;3.90;;;;;;;20.55;46.34;95990.66;10375517;28;20050;-55
2022/11/20 18:58:17;;;;;;;6.70;4.22;;;;;;;20.55;46.35;95998.78;10382031;28;20456;-56
2022/11/20 19:03:37;;;;;;;6.45;3.80;;;;;;;20.56;46.34;96000.31;10379073;28;20057;-56
2022/11/20 19:08:56;;;;;;;4.32;3.60;;;;;;;20.57;46.40;96001.13;10386824;28;20508;-56
2022/11/20 19:14:15;;;;;;;4.40;4.00;;;;;;;20.54;46.42;95998.00;10419930;28;20107;-56
2022/11/20 19:19:35;;;;;;;4.90;3.33;;;;;;;20.54;46.30;95989.88;10432815;28;20045;-56
2022/11/20 19:24:56;;;;;;;5.20;3.88;;;;;;;20.55;46.40;95993.34;10432636;28;20049;-56
2022/11/20 19:30:16;;;;;;;4.13;3.80;;;;;;;20.53;46.22;95990.22;10419432;28;20111;-57
2022/11/20 19:35:35;;;;;;;3.95;3.35;;;;;;;20.53;46.52;95996.41;10409758;28;20388;-57
2022/11/20 19:40:55;;;;;;;4.15;3.75;;;;;;;20.52;46.71;95994.03;10377915;28;20057;-56
2022/11/20 19:46:19;;;;;;;4.07;3.35;;;;;;;20.52;46.68;95992.16;10391164;28;20053;-58
2022/11/20 19:51:44;;;;;;;4.88;3.58;;;;;;;20.53;46.95;95988.28;10377623;28;20107;-57
2022/11/20 19:57:04;;;;;;;4.20;3.70;;;;;;;20.52;47.13;95989.44;10376570;28;20564;-58
2022/11/20 20:02:23;;;;;;;6.28;3.67;;;;;;;20.51;47.23;95976.25;10376934;28;20053;-57
2022/11/20 20:07:42;;;;;;;4.55;3.80;;;;;;;20.51;47.35;95979.75;10376598;28;20056;-57
2022/11/20 20:13:02;;;;;;;6.10;3.67;;;;;;;20.51;47.45;95976.25;10336647;28;20125;-56
2022/11/20 20:18:22;;;;;;;4.25;3.45;;;;;;;20.50;47.60;95963.84;10349335;28;20057;-57
2022/11/20 20:23:43;;;;;;;4.75;3.60;;;;;;;20.48;47.75;95977.75;10336212;28;20082;-59
2022/11/20 20:29:03;;;;;;;4.18;3.40;;;;;;;20.47;47.76;95970.75;10335761;28;20117;-58
2022/11/20 20:34:23;;;;;;;5.88;3.22;;;;;;;20.46;47.95;95969.16;10372117;28;20069;-57
2022/11/20 20:39:42;;;;;;;4.15;3.65;;;;;;;20.47;47.76;95969.97;10375838;28;20413;-56
2022/11/20 20:45:09;;;;;;;4.57;3.22;;;;;;;20.44;47.74;95952.50;10375582;28;20050;-55
2022/11/20 20:50:29;;;;;;;3.60;3.30;;;;;;;20.45;47.73;95964.13;10374954;28;20497;-57
2022/11/20 20:55:58;;;;;;;4.80;3.40;;;;;;;20.44;47.80;95954.44;10384703;28;20521;-56
2022/11/20 21:01:19;;;;;;;4.85;3.47;;;;;;;20.42;47.76;95952.06;10387884;28;20511;-55
2022/11/20 21:06:38;;;;;;;4.25;3.17;;;;;;;20.40;47.74;95945.44;10374457;28;20058;-56
2022/11/20 21:11:58;;;;;;;6.25;3.50;;;;;;;20.40;47.81;95940.03;10407935;28;20103;-55
2022/11/20 21:17:17;;;;;;;5.72;3.58;;;;;;;20.38;47.76;95928.78;10414751;28;20053;-56
2022/11/20 21:22:36;;;;;;;5.25;3.70;;;;;;;20.36;47.79;95926.41;10428528;28;20095;-55
2022/11/20 21:27:57;;;;;;;4.53;3.83;;;;;;;20.34;47.70;95907.84;10399579;28;20524;-56
2022/11/20 21:33:16;;;;;;;7.78;4.45;;;;;;;20.33;47.30;95887.34;10387194;28;20053;-57
2022/11/20 21:38:36;;;;;;;4.55;3.83;;;;;;;20.31;47.43;95880.72;10373972;28;20058;-56
2022/11/20 21:43:57;;;;;;;4.30;3.50;;;;;;;20.31;47.33;95875.31;10373137;28;20062;-56
2022/11/20 21:49:17;;;;;;;5.07;4.03;;;;;;;20.29;46.92;95867.53;10373385;28;20053;-56
2022/11/20 21:54:36;;;;;;;6.03;4.53;;;;;;;20.26;46.87;95862.06;10407952;28;20052;-56
2022/11/20 21:59:55;;;;;;;5.15;4.00;;;;;;;20.24;46.89;95862.41;10385189;28;20042;-56
2022/11/20 22:05:16;;;;;;;4.20;3.80;;;;;;;20.22;46.94;95856.56;10372637;28;20058;-56
2022/11/20 22:10:36;;;;;;;6.68;3.80;;;;;;;20.20;46.99;95848.00;10369432;28;20406;-54
2022/11/20 22:16:00;;;;;;;5.30;3.75;;;;;;;20.19;47.04;95845.66;10395355;28;20053;-56
2022/11/20 22:21:22;;;;;;;4.53;4.00;;;;;;;20.16;46.97;95841.72;10414120;28;20050;-56
2022/11/20 22:26:42;;;;;;;3.78;3.42;;;;;;;20.15;47.21;95845.59;10337722;28;20054;-57
2022/11/20 22:32:02;;;;;;;4.38;3.80;;;;;;;20.12;47.23;95851.69;10340762;28;20057;-56
2022/11/20 22:37:21;;;;;;;5.43;3.60;;;;;;;20.09;47.30;95847.78;10340291;28;20050;-56
2022/11/20 22:42:44;;;;;;;3.70;3.35;;;;;;;20.08;47.30;95840.00;10339841;28;20054;-56
2022/11/20 22:48:03;;;;;;;3.75;3.45;;;;;;;20.07;47.45;95827.59;10339705;28;20494;-56
2022/11/20 22:53:23;;;;;;;4.10;3.53;;;;;;;20.05;47.41;95813.66;10339414;28;20058;-56
2022/11/20 22:58:47;;;;;;;4.30;3.50;;;;;;;20.04;47.35;95815.59;10339031;28;20054;-56
2022/11/20 23:04:09;;;;;;;4.32;3.53;;;;;;;20.02;47.43;95815.16;10339440;28;20061;-56
2022/11/20 23:09:29;;;;;;;4.25;3.20;;;;;;;20.01;47.58;95820.91;10373913;28;20058;-56
2022/11/20 23:14:48;;;;;;;4.13;3.50;;;;;;;19.99;47.51;95809.66;10405875;28;20386;-56
2022/11/20 23:20:09;;;;;;;4.78;3.50;;;;;;;19.97;47.46;95817.34;10407248;28;20057;-56
2022/11/20 23:25:28;;;;;;;3.90;3.50;;;;;;;19.95;47.57;95813.06;10378759;28;20407;-56
2022/11/20 23:30:47;;;;;;;4.85;3.10;;;;;;;19.93;47.41;95815.34;10379073;28;20054;-56
2022/11/20 23:36:07;;;;;;;3.75;3.22;;;;;;;19.91;47.66;95808.69;10391878;28;20520;-55
2022/11/20 23:41:27;;;;;;;3.50;3.20;;;;;;;19.90;47.62;95797.13;10377542;28;20049;-56
2022/11/20 23:46:47;;;;;;;4.57;3.33;;;;;;;19.89;47.67;95794.75;10378303;28;20057;-56
2022/11/20 23:52:06;;;;;;;3.30;3.00;;;;;;;19.86;47.60;95785.44;10377555;28;20513;-56
2022/11/20 23:57:25;;;;;;;3.42;3.13;;;;;;;19.85;47.64;95783.84;10377593;28;20177;-56
